Concerto — JJ3855 — position and weather

sailwx.info

Track history (hours):
 
Tides and Currents Weather Stations Pressure Air Temp Water Temp Dewpoint Dewpoint Depression Visibility Wind Speed Wind Dir Waves Ship Positions

Concerto

Last reported at 2014-Sep-17 06:33 UTC. Time now 2014-Sep-17 07:32 UTC.
Position N 34°38' E 135°09'.

Length 62 m; draft 3 m.

Type: Passenger vessel. MMSI: 431000448.

Date/timePositionNaut miles runAvg speedWind from/ knotsBaromVisibWave heightAir tempDewpointWater temp
2014-Sep-17 06:33N 34°38' E 135°09'4 3.3
2014-Sep-17 05:28N 34°41' E 135°11'0 0.4
2014-Sep-17 04:33N 34°40' E 135°11'3 3.3
2014-Sep-17 03:33N 34°38' E 135°09'3 3.4
2014-Sep-17 02:33N 34°41' E 135°11'3 0.2
2014-Sep-16 11:33N 34°38' E 135°11'2 1.7
2014-Sep-16 10:33N 34°40' E 135°11'0 0.5
2014-Sep-16 09:33N 34°39' E 135°11'1 0.8
2014-Sep-16 08:33N 34°39' E 135°11'2 2.1
2014-Sep-16 07:31N 34°41' E 135°11'4 3.7
2014-Sep-16 06:33N 34°37' E 135°09'4 3.0
2014-Sep-16 05:22N 34°41' E 135°11'0 0.5
2014-Sep-16 04:33N 34°40' E 135°11'3 3.3
2014-Sep-16 03:34N 34°38' E 135°09'2 0.1
2014-Sep-15 11:33N 34°38' E 135°11'2 1.9
2014-Sep-15 10:33N 34°40' E 135°11'0 0.1
2014-Sep-15 09:33N 34°40' E 135°11'1 1.1
2014-Sep-15 08:33N 34°39' E 135°11'2 1.9
2014-Sep-15 07:27N 34°41' E 135°11'3 3.9
2014-Sep-15 06:33N 34°38' E 135°09'3 3.4
2014-Sep-15 05:32N 34°41' E 135°11'1 0.6
2014-Sep-15 04:33N 34°40' E 135°11'3 2.9
2014-Sep-15 03:33N 34°38' E 135°09'3 3.1
2014-Sep-15 02:33N 34°41' E 135°11'3 0.2
2014-Sep-14 11:34N 34°38' E 135°11'2 2.1
2014-Sep-14 10:33N 34°40' E 135°11'1 0.6
2014-Sep-14 09:33N 34°39' E 135°11'1 1.1
2014-Sep-14 08:33N 34°38' E 135°11'2 2.3
2014-Sep-14 07:33N 34°41' E 135°11'3 3.2
2014-Sep-14 06:33N 34°38' E 135°10'3 3.3
2014-Sep-14 05:33N 34°41' E 135°11'0 0.3
2014-Sep-14 04:33N 34°41' E 135°11'3 2.9
2014-Sep-14 03:33N 34°38' E 135°10'3 3.0
2014-Sep-14 02:33N 34°41' E 135°11'3 0.2
2014-Sep-13 11:33N 34°38' E 135°10'3 2.8
2014-Sep-13 10:33N 34°40' E 135°11'2 1.6
2014-Sep-13 09:34N 34°39' E 135°11'0 0.3
2014-Sep-13 08:33N 34°39' E 135°11'2 2.1
2014-Sep-13 07:31N 34°41' E 135°11'3 3.5
2014-Sep-13 06:33N 34°38' E 135°09'3 3.3
2014-Sep-13 05:33N 34°41' E 135°11'1 0.6
2014-Sep-13 04:33N 34°40' E 135°11'3 3.0
2014-Sep-13 03:33N 34°38' E 135°09'3 3.2
2014-Sep-13 02:33N 34°41' E 135°11'3 0.2
2014-Sep-12 11:33N 34°38' E 135°10'2 2.0
2014-Sep-12 10:33N 34°40' E 135°11'1 0.8
2014-Sep-12 09:33N 34°39' E 135°11'1 0.8
2014-Sep-12 08:33N 34°38' E 135°11'2 2.3
2014-Sep-12 07:30N 34°41' E 135°11'3 3.3
2014-Sep-12 06:32N 34°38' E 135°09'3 3.1
2014-Sep-12 05:30N 34°41' E 135°11'0 0.3
2014-Sep-12 04:33N 34°41' E 135°11'3 3.4
2014-Sep-12 03:33N 34°38' E 135°09'3 3.4
2014-Sep-12 02:33N 34°41' E 135°11'3 0.2
2014-Sep-11 11:33N 34°38' E 135°10'2 2.2
2014-Sep-11 10:33N 34°40' E 135°11'0 0.3
2014-Sep-11 09:33N 34°40' E 135°12'2 1.7
2014-Sep-11 08:33N 34°39' E 135°10'2 2.2
2014-Sep-11 07:29N 34°41' E 135°11'4 3.9
2014-Sep-11 06:33N 34°38' E 135°09'4 3.4
2014-Sep-11 05:29N 34°41' E 135°11'0 0.2
2014-Sep-11 04:34N 34°41' E 135°11'3 3.3
2014-Sep-11 03:34N 34°38' E 135°09'3 3.3
2014-Sep-11 02:33N 34°41' E 135°11'3 0.2
2014-Sep-10 11:33N 34°38' E 135°11'2 2.0
2014-Sep-10 10:33N 34°40' E 135°11'1 0.5
2014-Sep-10 09:33N 34°39' E 135°11'1 0.8
2014-Sep-10 08:33N 34°39' E 135°11'2 2.2
2014-Sep-10 07:33N 34°41' E 135°11'3 3.1
2014-Sep-10 06:33N 34°38' E 135°10'3 2.9
2014-Sep-10 05:30N 34°41' E 135°11'0 0.4
2014-Sep-10 04:33N 34°41' E 135°11'3 3.0
2014-Sep-10 03:33N 34°38' E 135°09'1 0.1
2014-Sep-09 11:33N 34°38' E 135°11'2 2.3
2014-Sep-09 10:33N 34°40' E 135°11'1 0.7
2014-Sep-09 09:33N 34°39' E 135°11'1 0.9
2014-Sep-09 08:33N 34°39' E 135°11'2 2.3
2014-Sep-09 07:33N 34°41' E 135°11'4 3.5
2014-Sep-09 06:33N 34°38' E 135°09'4 3.3
2014-Sep-09 05:28N 34°41' E 135°11'0 0.5
2014-Sep-09 04:33N 34°40' E 135°11'3 3.2
2014-Sep-09 03:33N 34°38' E 135°09'1 0.0
2014-Sep-08 11:33N 34°38' E 135°10'2 2.4
2014-Sep-08 10:33N 34°40' E 135°11'1 0.9
2014-Sep-08 09:33N 34°39' E 135°11'1 0.8
2014-Sep-08 08:33N 34°38' E 135°11'2 2.4
2014-Sep-08 07:33N 34°41' E 135°11'3 3.4
2014-Sep-08 06:33N 34°38' E 135°09'3 3.2
2014-Sep-08 05:30N 34°41' E 135°11'1 0.6
2014-Sep-08 04:33N 34°40' E 135°11'3 3.1
2014-Sep-08 03:34N 34°38' E 135°09'3 3.3
2014-Sep-08 02:33N 34°41' E 135°11'3 0.2
2014-Sep-07 11:33N 34°38' E 135°11'2 1.7
2014-Sep-07 10:33N 34°40' E 135°11'1 0.6
2014-Sep-07 09:33N 34°39' E 135°11'1 0.9
2014-Sep-07 08:33N 34°38' E 135°11'2 2.4
2014-Sep-07 07:33N 34°41' E 135°11'3 3.2
2014-Sep-07 06:33N 34°38' E 135°10'  
Track history (hours):
 
Tides and Currents Weather Stations Pressure Air Temp Water Temp Dewpoint Dewpoint Depression Visibility Wind Speed Wind Dir Waves Ship Positions

Concerto

Last reported at 2014-Sep-17 06:33 UTC. Time now 2014-Sep-17 07:32 UTC.
Position N 34°38' E 135°09'.

Length 62 m; draft 3 m.

Type: Passenger vessel. MMSI: 431000448.

Date/timePositionNaut miles runAvg speedWind from/ knotsBaromVisibWave heightAir tempDewpointWater temp
2014-Sep-17 06:33N 34°38' E 135°09'4 3.3
2014-Sep-17 05:28N 34°41' E 135°11'0 0.4
2014-Sep-17 04:33N 34°40' E 135°11'3 3.3
2014-Sep-17 03:33N 34°38' E 135°09'3 3.4
2014-Sep-17 02:33N 34°41' E 135°11'3 0.2
2014-Sep-16 11:33N 34°38' E 135°11'2 1.7
2014-Sep-16 10:33N 34°40' E 135°11'0 0.5
2014-Sep-16 09:33N 34°39' E 135°11'1 0.8
2014-Sep-16 08:33N 34°39' E 135°11'2 2.1
2014-Sep-16 07:31N 34°41' E 135°11'4 3.7
2014-Sep-16 06:33N 34°37' E 135°09'4 3.0
2014-Sep-16 05:22N 34°41' E 135°11'0 0.5
2014-Sep-16 04:33N 34°40' E 135°11'3 3.3
2014-Sep-16 03:34N 34°38' E 135°09'2 0.1
2014-Sep-15 11:33N 34°38' E 135°11'2 1.9
2014-Sep-15 10:33N 34°40' E 135°11'0 0.1
2014-Sep-15 09:33N 34°40' E 135°11'1 1.1
2014-Sep-15 08:33N 34°39' E 135°11'2 1.9
2014-Sep-15 07:27N 34°41' E 135°11'3 3.9
2014-Sep-15 06:33N 34°38' E 135°09'3 3.4
2014-Sep-15 05:32N 34°41' E 135°11'1 0.6
2014-Sep-15 04:33N 34°40' E 135°11'3 2.9
2014-Sep-15 03:33N 34°38' E 135°09'3 3.1
2014-Sep-15 02:33N 34°41' E 135°11'3 0.2
2014-Sep-14 11:34N 34°38' E 135°11'2 2.1
2014-Sep-14 10:33N 34°40' E 135°11'1 0.6
2014-Sep-14 09:33N 34°39' E 135°11'1 1.1
2014-Sep-14 08:33N 34°38' E 135°11'2 2.3
2014-Sep-14 07:33N 34°41' E 135°11'3 3.2
2014-Sep-14 06:33N 34°38' E 135°10'3 3.3
2014-Sep-14 05:33N 34°41' E 135°11'0 0.3
2014-Sep-14 04:33N 34°41' E 135°11'3 2.9
2014-Sep-14 03:33N 34°38' E 135°10'3 3.0
2014-Sep-14 02:33N 34°41' E 135°11'3 0.2
2014-Sep-13 11:33N 34°38' E 135°10'3 2.8
2014-Sep-13 10:33N 34°40' E 135°11'2 1.6
2014-Sep-13 09:34N 34°39' E 135°11'0 0.3
2014-Sep-13 08:33N 34°39' E 135°11'2 2.1
2014-Sep-13 07:31N 34°41' E 135°11'3 3.5
2014-Sep-13 06:33N 34°38' E 135°09'3 3.3
2014-Sep-13 05:33N 34°41' E 135°11'1 0.6
2014-Sep-13 04:33N 34°40' E 135°11'3 3.0
2014-Sep-13 03:33N 34°38' E 135°09'3 3.2
2014-Sep-13 02:33N 34°41' E 135°11'3 0.2
2014-Sep-12 11:33N 34°38' E 135°10'2 2.0
2014-Sep-12 10:33N 34°40' E 135°11'1 0.8
2014-Sep-12 09:33N 34°39' E 135°11'1 0.8
2014-Sep-12 08:33N 34°38' E 135°11'2 2.3
2014-Sep-12 07:30N 34°41' E 135°11'3 3.3
2014-Sep-12 06:32N 34°38' E 135°09'3 3.1
2014-Sep-12 05:30N 34°41' E 135°11'0 0.3
2014-Sep-12 04:33N 34°41' E 135°11'3 3.4
2014-Sep-12 03:33N 34°38' E 135°09'3 3.4
2014-Sep-12 02:33N 34°41' E 135°11'3 0.2
2014-Sep-11 11:33N 34°38' E 135°10'2 2.2
2014-Sep-11 10:33N 34°40' E 135°11'0 0.3
2014-Sep-11 09:33N 34°40' E 135°12'2 1.7
2014-Sep-11 08:33N 34°39' E 135°10'2 2.2
2014-Sep-11 07:29N 34°41' E 135°11'4 3.9
2014-Sep-11 06:33N 34°38' E 135°09'4 3.4
2014-Sep-11 05:29N 34°41' E 135°11'0 0.2
2014-Sep-11 04:34N 34°41' E 135°11'3 3.3
2014-Sep-11 03:34N 34°38' E 135°09'3 3.3
2014-Sep-11 02:33N 34°41' E 135°11'3 0.2
2014-Sep-10 11:33N 34°38' E 135°11'2 2.0
2014-Sep-10 10:33N 34°40' E 135°11'1 0.5
2014-Sep-10 09:33N 34°39' E 135°11'1 0.8
2014-Sep-10 08:33N 34°39' E 135°11'2 2.2
2014-Sep-10 07:33N 34°41' E 135°11'3 3.1
2014-Sep-10 06:33N 34°38' E 135°10'3 2.9
2014-Sep-10 05:30N 34°41' E 135°11'0 0.4
2014-Sep-10 04:33N 34°41' E 135°11'3 3.0
2014-Sep-10 03:33N 34°38' E 135°09'1 0.1
2014-Sep-09 11:33N 34°38' E 135°11'2 2.3
2014-Sep-09 10:33N 34°40' E 135°11'1 0.7
2014-Sep-09 09:33N 34°39' E 135°11'1 0.9
2014-Sep-09 08:33N 34°39' E 135°11'2 2.3
2014-Sep-09 07:33N 34°41' E 135°11'4 3.5
2014-Sep-09 06:33N 34°38' E 135°09'4 3.3
2014-Sep-09 05:28N 34°41' E 135°11'0 0.5
2014-Sep-09 04:33N 34°40' E 135°11'3 3.2
2014-Sep-09 03:33N 34°38' E 135°09'1 0.0
2014-Sep-08 11:33N 34°38' E 135°10'2 2.4
2014-Sep-08 10:33N 34°40' E 135°11'1 0.9
2014-Sep-08 09:33N 34°39' E 135°11'1 0.8
2014-Sep-08 08:33N 34°38' E 135°11'2 2.4
2014-Sep-08 07:33N 34°41' E 135°11'3 3.4
2014-Sep-08 06:33N 34°38' E 135°09'3 3.2
2014-Sep-08 05:30N 34°41' E 135°11'1 0.6
2014-Sep-08 04:33N 34°40' E 135°11'3 3.1
2014-Sep-08 03:34N 34°38' E 135°09'3 3.3
2014-Sep-08 02:33N 34°41' E 135°11'3 0.2
2014-Sep-07 11:33N 34°38' E 135°11'2 1.7
2014-Sep-07 10:33N 34°40' E 135°11'1 0.6
2014-Sep-07 09:33N 34°39' E 135°11'1 0.9
2014-Sep-07 08:33N 34°38' E 135°11'2 2.4
2014-Sep-07 07:33N 34°41' E 135°11'3 3.2
2014-Sep-07 06:33N 34°38' E 135°10'  

Dump ship's entire track history